Time;durP1;ratioP1;P1;durP2;ratioP2;P2;SDS_P1;SDS_P2;PMS_P1;PMS_P2;Temp;Humidity;BMP_temperature;BMP_pressure;BME280_temperature;BME280_humidity;BME280_pressure;Samples;Min_cycle;Max_cycle;Signal;HPM_P1;HPM_P2
2024/03/05 00:00:51;;;;;;;159.35;59.47;;;;;;;9.27;100.00;97421.41;5094608;27;20079;-59
2024/03/05 00:03:16;;;;;;;165.57;60.70;;;;;;;9.38;100.00;97425.66;5095489;27;20042;-58
2024/03/05 00:05:42;;;;;;;132.95;65.13;;;;;;;9.51;100.00;97416.00;5096329;27;20051;-59
2024/03/05 00:08:07;;;;;;;151.02;62.38;;;;;;;9.45;100.00;97428.19;5095308;27;20399;-59
2024/03/05 00:10:32;;;;;;;169.88;66.85;;;;;;;9.67;100.00;97422.81;5094218;27;20063;-58
2024/03/05 00:12:58;;;;;;;133.43;53.20;;;;;;;9.59;100.00;97420.28;5096247;27;20089;-58
2024/03/05 00:15:23;;;;;;;189.40;61.42;;;;;;;9.73;100.00;97428.81;5093905;27;20032;-61
2024/03/05 00:17:48;;;;;;;146.27;56.55;;;;;;;9.91;100.00;97426.91;5097138;27;20103;-59
2024/03/05 00:20:18;;;;;;;152.70;57.97;;;;;;;10.19;100.00;97426.66;5094051;27;20034;-58
2024/03/05 00:22:47;;;;;;;160.60;56.10;;;;;;;10.48;100.00;97435.88;5094775;27;20020;-61
2024/03/05 00:25:13;;;;;;;137.90;49.50;;;;;;;10.14;100.00;97426.69;5095436;27;20155;-58
2024/03/05 00:27:38;;;;;;;160.75;56.53;;;;;;;10.53;100.00;97428.88;5098279;27;20428;-58
2024/03/05 00:30:13;;;;;;;180.77;51.95;;;;;;;10.52;100.00;97432.38;5094474;27;20138;-58
2024/03/05 00:32:39;;;;;;;177.30;52.72;;;;;;;10.30;100.00;97431.72;5093586;27;20043;-59
2024/03/05 00:35:08;;;;;;;172.88;49.28;;;;;;;10.17;100.00;97438.78;5095481;27;20402;-60
2024/03/05 00:37:37;;;;;;;151.65;43.08;;;;;;;10.06;100.00;97444.09;5094788;27;20073;-58
2024/03/05 00:40:06;;;;;;;160.27;48.40;;;;;;;9.91;100.00;97442.50;5093426;27;20300;-58
2024/03/05 00:42:32;;;;;;;149.48;52.40;;;;;;;10.34;100.00;97443.81;5093696;27;20039;-59
2024/03/05 00:44:58;;;;;;;135.85;44.22;;;;;;;9.97;100.00;97439.84;5094515;27;20356;-59
2024/03/05 00:47:23;;;;;;;176.10;56.15;;;;;;;9.90;100.00;97444.25;5095115;27;20048;-60
2024/03/05 00:49:48;;;;;;;153.35;57.42;;;;;;;9.89;100.00;97439.06;5097055;27;20024;-59
2024/03/05 00:52:14;;;;;;;147.18;54.80;;;;;;;9.86;100.00;97446.88;5095173;27;20434;-59
2024/03/05 00:54:39;;;;;;;183.77;56.25;;;;;;;9.90;100.00;97438.19;5093461;28;20023;-59
2024/03/05 00:57:04;;;;;;;150.50;57.42;;;;;;;9.99;100.00;97451.09;5095510;27;20084;-59
2024/03/05 00:59:30;;;;;;;150.40;52.45;;;;;;;9.96;100.00;97448.53;5094417;27;20147;-60
2024/03/05 01:01:55;;;;;;;159.65;49.22;;;;;;;9.92;100.00;97449.44;5094177;27;20070;-58
2024/03/05 01:04:21;;;;;;;154.73;50.88;;;;;;;10.09;100.00;97445.81;5093742;28;20024;-59
2024/03/05 01:06:46;;;;;;;149.65;46.65;;;;;;;10.15;100.00;97453.53;5094957;27;20115;-58
2024/03/05 01:09:16;;;;;;;177.38;46.15;;;;;;;9.78;100.00;97449.56;5093709;27;20185;-60
2024/03/05 01:11:42;;;;;;;145.88;41.00;;;;;;;9.77;100.00;97453.88;5091315;28;20036;-58
2024/03/05 01:14:08;;;;;;;109.13;38.92;;;;;;;9.58;100.00;97460.13;5094825;27;20038;-57
2024/03/05 01:16:33;;;;;;;141.07;47.33;;;;;;;9.62;100.00;97462.66;5091920;27;20036;-59
2024/03/05 01:18:59;;;;;;;135.07;47.00;;;;;;;9.68;100.00;97466.09;5097048;27;20035;-58
2024/03/05 01:21:25;;;;;;;133.05;53.40;;;;;;;10.18;100.00;97458.72;5095258;27;20039;-58
2024/03/05 01:23:50;;;;;;;136.60;49.35;;;;;;;10.06;100.00;97464.03;5095862;28;20020;-59
2024/03/05 01:26:15;;;;;;;121.18;40.42;;;;;;;9.85;100.00;97464.22;5096286;27;20051;-60
2024/03/05 01:28:41;;;;;;;157.95;52.00;;;;;;;10.28;100.00;97462.06;5094186;28;20484;-58
2024/03/05 01:31:08;;;;;;;131.73;50.90;;;;;;;10.41;100.00;97463.66;5092954;28;20298;-58
2024/03/05 01:33:35;;;;;;;158.30;47.45;;;;;;;10.12;100.00;97469.16;5093608;27;20030;-60
2024/03/05 01:36:01;;;;;;;165.80;48.85;;;;;;;10.17;100.00;97464.75;5093635;27;20028;-58
2024/03/05 01:38:27;;;;;;;154.00;49.53;;;;;;;9.93;100.00;97464.16;5096754;28;20027;-59
2024/03/05 01:40:52;;;;;;;137.75;55.17;;;;;;;10.32;100.00;97462.91;5094396;28;20438;-57
2024/03/05 01:43:20;;;;;;;183.60;54.05;;;;;;;10.46;100.00;97462.78;5094653;28;20034;-57
2024/03/05 01:45:45;;;;;;;164.02;45.30;;;;;;;10.25;100.00;97473.34;5095570;27;20061;-60
2024/03/05 01:48:13;;;;;;;151.82;44.60;;;;;;;10.25;100.00;97475.09;5099544;28;20023;-58
2024/03/05 01:50:39;;;;;;;186.02;55.38;;;;;;;10.46;100.00;97468.00;5098051;27;20028;-60
2024/03/05 01:53:08;;;;;;;129.75;40.17;;;;;;;10.21;100.00;97468.22;5099977;27;20037;-59
2024/03/05 01:55:35;;;;;;;148.57;40.05;;;;;;;9.82;100.00;97471.16;5097584;27;20040;-58
2024/03/05 01:58:03;;;;;;;166.45;44.10;;;;;;;9.85;100.00;97469.41;5102003;27;20035;-59
2024/03/05 02:00:29;;;;;;;139.02;44.85;;;;;;;9.68;100.00;97466.94;5098896;27;20181;-60
2024/03/05 02:02:55;;;;;;;161.13;48.58;;;;;;;9.97;100.00;97467.56;5098851;27;20715;-59
2024/03/05 02:05:20;;;;;;;177.95;52.75;;;;;;;10.03;100.00;97470.97;5098791;27;20023;-56
2024/03/05 02:07:47;;;;;;;164.18;52.75;;;;;;;9.97;100.00;97475.34;5098497;27;20050;-58
2024/03/05 02:10:13;;;;;;;189.23;48.70;;;;;;;10.02;100.00;97476.16;5095691;27;20725;-60
2024/03/05 02:12:42;;;;;;;166.10;50.30;;;;;;;9.94;100.00;97465.00;5097427;27;20092;-58
2024/03/05 02:15:12;;;;;;;150.95;47.72;;;;;;;9.90;100.00;97472.81;5099098;27;20479;-57
2024/03/05 02:17:42;;;;;;;192.15;52.85;;;;;;;9.87;100.00;97482.38;5099356;27;20023;-60
2024/03/05 02:20:13;;;;;;;156.82;53.85;;;;;;;9.86;100.00;97475.44;5101079;27;20043;-60
2024/03/05 02:22:38;;;;;;;187.05;47.60;;;;;;;9.71;100.00;97479.03;5095857;27;20938;-59
2024/03/05 02:25:05;;;;;;;148.93;49.90;;;;;;;10.09;100.00;97480.44;5096002;27;20487;-58
2024/03/05 02:27:35;;;;;;;167.65;45.42;;;;;;;9.89;100.00;97478.91;5098113;27;20034;-60
2024/03/05 02:30:02;;;;;;;201.07;50.13;;;;;;;10.23;100.00;97482.03;5098085;27;20024;-60
2024/03/05 02:32:28;;;;;;;147.65;46.95;;;;;;;10.23;100.00;97482.91;5097473;27;20114;-59
2024/03/05 02:34:54;;;;;;;145.15;40.15;;;;;;;10.00;100.00;97485.72;5097523;27;20028;-57
2024/03/05 02:37:21;;;;;;;173.40;42.15;;;;;;;10.00;100.00;97480.53;5097306;27;20050;-59
2024/03/05 02:39:47;;;;;;;171.57;41.83;;;;;;;9.83;100.00;97472.91;5096686;27;20453;-59
2024/03/05 02:42:12;;;;;;;165.90;46.08;;;;;;;10.09;100.00;97474.41;5094623;27;20043;-58
2024/03/05 02:44:37;;;;;;;152.20;47.25;;;;;;;10.23;100.00;97474.25;5097230;27;20434;-58
2024/03/05 02:47:04;;;;;;;130.07;41.17;;;;;;;10.08;100.00;97472.66;5097368;27;20056;-58
2024/03/05 02:49:29;;;;;;;169.15;46.55;;;;;;;10.18;100.00;97469.09;5096456;27;20011;-58
2024/03/05 02:51:55;;;;;;;132.80;42.08;;;;;;;10.03;100.00;97475.31;5095401;27;20040;-58
2024/03/05 02:54:21;;;;;;;157.07;40.97;;;;;;;10.01;100.00;97474.44;5095663;27;20122;-60
2024/03/05 02:56:46;;;;;;;191.02;43.00;;;;;;;9.83;100.00;97473.75;5095556;27;20035;-59
2024/03/05 02:59:11;;;;;;;150.90;47.47;;;;;;;10.02;100.00;97477.03;5098785;27;20372;-58
2024/03/05 03:01:36;;;;;;;163.38;45.90;;;;;;;10.01;100.00;97477.06;5095885;27;20457;-58
2024/03/05 03:04:02;;;;;;;156.38;53.40;;;;;;;10.10;100.00;97476.13;5095547;27;20038;-58
2024/03/05 03:06:27;;;;;;;121.40;42.05;;;;;;;10.09;100.00;97484.78;5097038;27;20051;-59
2024/03/05 03:08:52;;;;;;;147.30;41.38;;;;;;;9.85;100.00;97489.31;5096696;27;20031;-57
2024/03/05 03:11:18;;;;;;;147.90;42.53;;;;;;;10.06;100.00;97485.66;5095070;27;20036;-58
2024/03/05 03:13:47;;;;;;;143.68;50.42;;;;;;;10.50;100.00;97482.69;5096459;27;20524;-60
2024/03/05 03:16:16;;;;;;;139.77;42.30;;;;;;;10.36;100.00;97485.38;5097499;27;20576;-58
2024/03/05 03:18:44;;;;;;;155.70;40.10;;;;;;;10.31;100.00;97489.78;5097458;27;20199;-60
2024/03/05 03:21:09;;;;;;;160.18;42.25;;;;;;;10.05;100.00;97493.50;5096586;27;20043;-59
2024/03/05 03:23:35;;;;;;;177.60;46.67;;;;;;;10.10;100.00;97494.31;5093719;27;20443;-60
2024/03/05 03:26:00;;;;;;;145.50;41.60;;;;;;;9.93;100.00;97494.44;5094169;27;20143;-59
2024/03/05 03:28:25;;;;;;;142.85;40.97;;;;;;;9.90;100.00;97491.00;5097901;27;20092;-61
2024/03/05 03:30:54;;;;;;;160.65;49.80;;;;;;;9.91;100.00;97497.06;5094702;27;20041;-59
2024/03/05 03:33:23;;;;;;;158.00;45.83;;;;;;;9.90;100.00;97496.22;5094215;27;20043;-59
2024/03/05 03:35:48;;;;;;;157.90;46.55;;;;;;;10.10;100.00;97489.09;5095447;27;20032;-61
2024/03/05 03:38:14;;;;;;;169.63;43.97;;;;;;;10.19;100.00;97488.13;5096109;27;20027;-59
2024/03/05 03:40:42;;;;;;;160.98;43.20;;;;;;;10.15;100.00;97490.78;5095290;27;20063;-60
2024/03/05 03:43:10;;;;;;;159.05;40.60;;;;;;;9.75;100.00;97491.13;5097396;27;20510;-58
2024/03/05 03:45:35;;;;;;;163.15;44.67;;;;;;;10.07;100.00;97499.53;5094606;27;20070;-61
2024/03/05 03:48:00;;;;;;;151.73;41.08;;;;;;;10.04;100.00;97497.81;5098457;27;20724;-60
2024/03/05 03:50:26;;;;;;;131.10;39.55;;;;;;;9.95;100.00;97496.16;5095815;27;20114;-61
2024/03/05 03:52:52;;;;;;;151.32;42.28;;;;;;;9.84;100.00;97503.19;5095641;27;20138;-59
2024/03/05 03:55:18;;;;;;;145.02;48.75;;;;;;;9.90;100.00;97508.31;5095540;27;20494;-59
2024/03/05 03:57:43;;;;;;;182.20;49.53;;;;;;;9.86;100.00;97504.91;5096876;27;20458;-60
2024/03/05 04:00:09;;;;;;;163.27;49.72;;;;;;;9.85;100.00;97504.91;5095989;27;20349;-59
2024/03/05 04:02:37;;;;;;;145.27;43.38;;;;;;;9.81;100.00;97506.69;5094380;27;20434;-63
2024/03/05 04:05:09;;;;;;;151.65;48.60;;;;;;;9.73;100.00;97511.91;5094514;27;20537;-60
2024/03/05 04:07:37;;;;;;;174.10;43.78;;;;;;;9.57;100.00;97507.72;5094382;27;20177;-61
2024/03/05 04:10:07;;;;;;;174.80;50.17;;;;;;;9.57;100.00;97510.31;5094659;27;20394;-60
2024/03/05 04:12:33;;;;;;;166.73;51.38;;;;;;;9.51;100.00;97516.41;5093620;27;20311;-59
2024/03/05 04:14:59;;;;;;;147.32;48.08;;;;;;;9.56;100.00;97513.78;5095975;27;20502;-59
2024/03/05 04:17:24;;;;;;;142.70;50.58;;;;;;;9.63;100.00;97518.06;5094047;27;20536;-59
2024/03/05 04:19:49;;;;;;;183.88;46.03;;;;;;;9.75;100.00;97525.75;5094272;27;20450;-58
2024/03/05 04:22:15;;;;;;;161.60;52.35;;;;;;;9.84;100.00;97524.81;5094099;27;20051;-61
2024/03/05 04:24:49;;;;;;;172.60;45.65;;;;;;;9.70;100.00;97519.75;5094795;27;20107;-60
2024/03/05 04:27:18;;;;;;;175.60;49.70;;;;;;;9.68;100.00;97516.28;5095300;27;20047;-60
2024/03/05 04:29:47;;;;;;;155.93;47.10;;;;;;;9.90;100.00;97523.91;5094262;27;20067;-58
2024/03/05 04:32:13;;;;;;;190.00;54.33;;;;;;;9.80;100.00;97520.50;5093722;27;20047;-61
2024/03/05 04:34:40;;;;;;;171.43;48.97;;;;;;;9.93;100.00;97526.50;5094557;27;20490;-57
2024/03/05 04:37:10;;;;;;;150.68;41.70;;;;;;;9.63;100.00;97531.91;5095222;27;20104;-58
2024/03/05 04:39:36;;;;;;;143.20;47.60;;;;;;;9.64;100.00;97535.34;5096863;27;20023;-60
2024/03/05 04:42:02;;;;;;;160.98;47.28;;;;;;;9.79;100.00;97533.53;5093527;27;20291;-59
2024/03/05 04:44:29;;;;;;;164.27;44.08;;;;;;;9.90;100.00;97535.16;5094942;27;20161;-60
2024/03/05 04:46:56;;;;;;;154.80;47.13;;;;;;;9.70;100.00;97535.31;5094021;27;20435;-58
2024/03/05 04:49:21;;;;;;;166.50;44.15;;;;;;;9.72;100.00;97532.69;5096257;27;20028;-60
2024/03/05 04:51:46;;;;;;;189.77;48.55;;;;;;;9.72;100.00;97538.75;5092734;27;20043;-58
2024/03/05 04:54:12;;;;;;;154.70;44.05;;;;;;;9.79;100.00;97543.94;5094574;27;20027;-59
2024/03/05 04:56:38;;;;;;;153.02;42.70;;;;;;;9.44;100.00;97541.56;5095746;27;20039;-59
2024/03/05 04:59:04;;;;;;;176.70;54.88;;;;;;;9.72;100.00;97551.75;5095854;27;20028;-59
2024/03/05 05:01:29;;;;;;;157.55;45.92;;;;;;;9.53;100.00;97543.22;5094043;27;20031;-59
2024/03/05 05:03:55;;;;;;;140.25;37.97;;;;;;;9.25;100.00;97552.00;5094592;27;20054;-61
2024/03/05 05:06:21;;;;;;;177.80;47.10;;;;;;;9.32;100.00;97555.44;5095460;27;20035;-59
2024/03/05 05:08:49;;;;;;;197.32;48.13;;;;;;;9.20;100.00;97555.50;5094855;27;20023;-60
2024/03/05 05:11:14;;;;;;;158.73;50.05;;;;;;;9.32;100.00;97544.22;5093539;27;20552;-58
2024/03/05 05:13:40;;;;;;;166.10;47.33;;;;;;;9.25;100.00;97546.81;5092722;28;20531;-61
2024/03/05 05:16:08;;;;;;;160.85;50.58;;;;;;;9.34;100.00;97550.25;5091090;27;20038;-60
2024/03/05 05:18:34;;;;;;;172.95;49.95;;;;;;;9.35;100.00;97549.38;5096341;27;20023;-57
2024/03/05 05:21:00;;;;;;;159.05;51.50;;;;;;;9.31;100.00;97545.09;5093141;27;20454;-59
2024/03/05 05:23:25;;;;;;;158.25;47.35;;;;;;;9.32;100.00;97545.06;5094775;27;20114;-60
2024/03/05 05:25:51;;;;;;;201.38;45.25;;;;;;;9.17;100.00;97545.16;5092901;27;20039;-58
2024/03/05 05:28:16;;;;;;;153.98;46.28;;;;;;;9.36;100.00;97546.75;5095214;28;20030;-59
2024/03/05 05:30:42;;;;;;;157.48;44.75;;;;;;;9.18;100.00;97552.06;5092322;28;20035;-61
2024/03/05 05:33:07;;;;;;;190.10;51.05;;;;;;;9.48;100.00;97548.44;5092116;28;20042;-59
2024/03/05 05:35:37;;;;;;;130.05;38.53;;;;;;;9.12;100.00;97550.34;5095853;27;20085;-58
2024/03/05 05:38:03;;;;;;;162.50;46.22;;;;;;;9.17;100.00;97548.59;5095264;28;20398;-59
2024/03/05 05:40:28;;;;;;;174.45;48.90;;;;;;;9.37;100.00;97548.50;5091922;28;20731;-62
2024/03/05 05:42:54;;;;;;;196.40;47.40;;;;;;;9.18;100.00;97555.53;5092923;28;20043;-61
2024/03/05 05:45:21;;;;;;;165.98;52.85;;;;;;;9.06;100.00;97553.00;5092978;27;20296;-62
2024/03/05 05:47:51;;;;;;;186.95;48.80;;;;;;;8.98;100.00;97556.47;5093877;28;20023;-58
2024/03/05 05:50:17;;;;;;;149.32;43.85;;;;;;;8.96;100.00;97553.03;5093248;27;20395;-58
2024/03/05 05:52:53;;;;;;;197.50;47.28;;;;;;;8.96;100.00;97558.22;5093782;28;20030;-59
2024/03/05 05:55:20;;;;;;;151.93;47.97;;;;;;;9.31;100.00;97564.09;5093890;27;20288;-59
2024/03/05 05:57:49;;;;;;;172.45;51.33;;;;;;;9.27;100.00;97564.16;5093610;28;20023;-61
2024/03/05 06:00:23;;;;;;;153.10;49.03;;;;;;;9.14;100.00;97569.38;5092367;28;20323;-59
2024/03/05 06:02:55;;;;;;;163.57;52.88;;;;;;;9.20;100.00;97568.47;5092907;28;20585;-59
2024/03/05 06:05:27;;;;;;;160.00;47.88;;;;;;;9.11;100.00;97572.00;5092180;27;20422;-59
2024/03/05 06:07:53;;;;;;;174.50;52.20;;;;;;;9.26;100.00;97573.66;5091781;28;20038;-57
2024/03/05 06:10:19;;;;;;;166.30;54.90;;;;;;;9.32;100.00;97580.56;5090314;27;20077;-60
2024/03/05 06:12:45;;;;;;;215.15;71.40;;;;;;;9.39;100.00;97582.22;5092134;28;20026;-58
2024/03/05 06:15:12;;;;;;;132.25;45.75;;;;;;;9.60;100.00;97581.25;5092942;27;20331;-58
2024/03/05 06:17:39;;;;;;;174.15;45.75;;;;;;;9.39;100.00;97587.41;5092780;28;20130;-58
2024/03/05 06:20:07;;;;;;;167.27;50.42;;;;;;;9.42;100.00;97591.75;5093754;28;20035;-61
2024/03/05 06:22:32;;;;;;;160.93;51.40;;;;;;;9.46;100.00;97585.66;5094386;28;20088;-58
2024/03/05 06:24:58;;;;;;;154.52;42.55;;;;;;;9.38;100.00;97586.56;5092904;27;20020;-58
2024/03/05 06:27:23;;;;;;;144.00;45.63;;;;;;;9.46;100.00;97583.94;5094462;27;20082;-59
2024/03/05 06:29:49;;;;;;;165.70;48.90;;;;;;;9.85;100.00;97590.63;5093322;28;20027;-59
2024/03/05 06:32:15;;;;;;;160.35;42.35;;;;;;;9.61;100.00;97587.28;5097186;27;20040;-58
2024/03/05 06:34:42;;;;;;;121.10;36.50;;;;;;;9.26;100.00;97597.00;5094993;27;20096;-59
2024/03/05 06:37:07;;;;;;;156.73;48.30;;;;;;;9.50;100.00;97595.16;5098751;27;20146;-59
2024/03/05 06:39:35;;;;;;;111.70;33.55;;;;;;;9.44;100.00;97606.44;5114714;27;20026;-60
2024/03/05 06:42:01;;;;;;;139.50;43.95;;;;;;;9.66;100.00;97605.47;5094948;27;20515;-57
2024/03/05 06:44:35;;;;;;;157.05;47.10;;;;;;;9.66;100.00;97608.06;5095700;27;20104;-57
2024/03/05 06:47:01;;;;;;;147.77;43.40;;;;;;;9.82;100.00;97614.88;5095626;27;20035;-57
2024/03/05 06:49:37;;;;;;;152.68;40.28;;;;;;;9.73;100.00;97605.41;5097784;27;20030;-57
2024/03/05 06:57:32;;;;;;;146.68;47.33;;;;;;;9.62;100.00;97605.47;5097455;27;20093;-58
2024/03/05 06:59:58;;;;;;;197.32;45.22;;;;;;;9.49;100.00;97612.47;5093519;27;20077;-60
2024/03/05 07:02:26;;;;;;;140.50;34.80;;;;;;;9.19;100.00;97610.88;5097716;27;20063;-60
2024/03/05 07:04:53;;;;;;;191.18;56.53;;;;;;;9.20;100.00;97612.59;5096090;27;20020;-58
2024/03/05 07:07:18;;;;;;;180.75;45.58;;;;;;;9.30;100.00;97616.00;5096221;27;20067;-56
2024/03/05 07:09:44;;;;;;;143.52;41.47;;;;;;;9.15;100.00;97624.72;5095661;27;20123;-56
2024/03/05 07:12:09;;;;;;;169.07;47.25;;;;;;;9.32;100.00;97622.91;5095291;27;20027;-57
2024/03/05 07:14:38;;;;;;;168.52;64.15;;;;;;;9.42;100.00;97618.56;5095349;27;20016;-59
2024/03/05 07:17:06;;;;;;;141.98;48.22;;;;;;;9.24;100.00;97620.38;5097492;27;20367;-58
2024/03/05 07:19:31;;;;;;;151.95;49.78;;;;;;;9.39;100.00;97613.38;5097301;27;20265;-57
2024/03/05 07:21:57;;;;;;;175.23;50.70;;;;;;;9.55;100.00;97619.38;5094919;27;20126;-57
2024/03/05 07:24:22;;;;;;;148.52;43.85;;;;;;;9.97;100.00;97620.84;5094631;27;20023;-60
2024/03/05 07:26:47;;;;;;;171.40;48.83;;;;;;;10.02;100.00;97617.34;5096450;27;20031;-60
2024/03/05 07:29:13;;;;;;;159.40;47.35;;;;;;;10.27;100.00;97624.09;5098780;27;20058;-57
2024/03/05 07:31:38;;;;;;;128.35;42.22;;;;;;;10.59;100.00;97624.72;5096040;27;20456;-57
2024/03/05 07:34:03;;;;;;;123.60;34.65;;;;;;;10.53;100.00;97617.84;5095524;27;20269;-57
2024/03/05 07:36:29;;;;;;;145.40;39.90;;;;;;;10.90;100.00;97620.06;5095563;27;20031;-59
2024/03/05 07:38:54;;;;;;;162.32;36.83;;;;;;;10.99;100.00;97624.31;5096887;27;20441;-57
2024/03/05 07:41:20;;;;;;;132.13;30.70;;;;;;;10.93;100.00;97620.06;5097140;27;20038;-59
2024/03/05 07:43:45;;;;;;;136.85;32.92;;;;;;;10.99;100.00;97629.50;5092336;27;20682;-60
2024/03/05 07:46:11;;;;;;;132.75;34.58;;;;;;;11.09;100.00;97619.88;5098102;27;20035;-58
2024/03/05 07:48:37;;;;;;;130.70;32.33;;;;;;;10.98;100.00;97626.94;5097909;27;20020;-59
2024/03/05 07:51:02;;;;;;;162.90;36.75;;;;;;;10.91;100.00;97631.34;5096749;27;20028;-58
2024/03/05 07:53:27;;;;;;;132.38;33.47;;;;;;;10.99;100.00;97634.72;5096957;27;20683;-60
2024/03/05 07:55:53;;;;;;;134.52;33.45;;;;;;;10.60;100.00;97629.91;5094777;27;20093;-61
2024/03/05 07:58:19;;;;;;;221.57;35.95;;;;;;;10.26;100.00;97628.44;5094724;27;20053;-58
2024/03/05 08:00:44;;;;;;;114.65;32.80;;;;;;;10.68;100.00;97616.81;5096729;27;20403;-58
2024/03/05 08:03:10;;;;;;;134.95;30.88;;;;;;;10.83;100.00;97620.16;5096537;27;20073;-57
2024/03/05 08:05:35;;;;;;;120.80;31.23;;;;;;;11.03;100.00;97618.19;5095906;27;20403;-58
2024/03/05 08:08:02;;;;;;;146.20;34.33;;;;;;;11.38;100.00;97617.78;5095864;27;20035;-58
2024/03/05 08:10:27;;;;;;;132.30;33.80;;;;;;;11.74;100.00;97618.19;5094914;27;20054;-57
2024/03/05 08:12:55;;;;;;;144.77;32.05;;;;;;;11.81;100.00;97624.19;5094959;27;20134;-57
2024/03/05 08:15:21;;;;;;;102.53;27.30;;;;;;;11.84;100.00;97621.53;5094749;27;20076;-59
2024/03/05 08:17:51;;;;;;;109.18;23.00;;;;;;;11.52;100.00;97615.88;5093100;27;20050;-60
2024/03/05 08:20:24;;;;;;;114.85;29.85;;;;;;;11.96;100.00;97616.13;5095303;27;20076;-57
2024/03/05 08:22:49;;;;;;;131.70;32.80;;;;;;;12.31;100.00;97616.50;5093971;27;20015;-58
2024/03/05 08:25:16;;;;;;;135.85;31.33;;;;;;;12.64;100.00;97613.34;5095641;27;20051;-58
2024/03/05 08:27:46;;;;;;;99.85;26.48;;;;;;;12.84;100.00;97612.13;5096647;27;20062;-60
2024/03/05 08:30:18;;;;;;;108.60;26.23;;;;;;;12.47;100.00;97604.06;5092020;27;20023;-59
2024/03/05 08:32:44;;;;;;;111.30;29.27;;;;;;;12.74;100.00;97608.81;5095267;27;20531;-59
2024/03/05 08:35:11;;;;;;;94.28;31.02;;;;;;;12.98;100.00;97606.63;5092965;27;20455;-60
2024/03/05 08:37:48;;;;;;;110.03;27.40;;;;;;;12.73;100.00;97605.34;5094131;27;20457;-60
2024/03/05 08:40:15;;;;;;;90.00;21.83;;;;;;;12.90;100.00;97598.94;5093702;27;20566;-57
2024/03/05 08:42:42;;;;;;;109.93;26.20;;;;;;;13.34;100.00;97592.88;5094497;27;20012;-59
2024/03/05 08:45:09;;;;;;;87.60;24.95;;;;;;;14.02;100.00;97599.25;5093460;27;20031;-58
2024/03/05 08:47:38;;;;;;;69.25;22.38;;;;;;;14.38;100.00;97594.91;5095721;27;20490;-58
2024/03/05 08:50:04;;;;;;;145.23;29.67;;;;;;;14.29;100.00;97585.53;5093225;27;20514;-58
2024/03/05 08:52:30;;;;;;;86.50;29.40;;;;;;;14.88;100.00;97583.19;5093964;27;20565;-58
2024/03/05 08:54:56;;;;;;;95.28;27.17;;;;;;;15.23;100.00;97582.19;5093265;27;20038;-58
2024/03/05 08:57:23;;;;;;;89.68;23.30;;;;;;;16.10;100.00;97575.25;5095277;27;20041;-57
2024/03/05 08:59:49;;;;;;;110.80;82.05;;;;;;;17.11;100.00;97578.88;5092374;28;20044;-57
2024/03/05 09:02:15;;;;;;;82.57;20.85;;;;;;;16.39;100.00;97579.53;5093278;27;20044;-57
2024/03/05 09:04:40;;;;;;;79.53;23.23;;;;;;;16.70;100.00;97574.16;5095000;27;20072;-60
2024/03/05 09:07:05;;;;;;;96.28;25.92;;;;;;;16.46;100.00;97572.31;5091963;27;20313;-57
2024/03/05 09:09:31;;;;;;;82.32;26.30;;;;;;;16.16;100.00;97577.69;5094494;27;20023;-58
2024/03/05 09:11:59;;;;;;;100.35;24.80;;;;;;;18.65;100.00;97569.34;5094077;27;20084;-57
2024/03/05 09:14:27;;;;;;;76.72;23.73;;;;;;;22.11;100.00;97581.44;5093621;28;20016;-60
2024/03/05 09:16:53;;;;;;;93.00;27.52;;;;;;;20.97;100.00;97578.78;5095199;27;20039;-57
2024/03/05 09:19:21;;;;;;;52.22;12.50;;;;;;;-148.24;100.00;61531.34;5093906;28;20076;-60
2024/03/05 09:21:48;;;;;;;65.82;15.10;;;;;;;-148.24;100.00;61531.34;5093194;27;20042;-59
2024/03/05 09:24:13;;;;;;;90.45;15.48;;;;;;;-148.24;100.00;61531.34;5093550;27;20028;-61
2024/03/05 09:26:38;;;;;;;70.03;16.33;;;;;;;-148.24;100.00;61531.34;5096835;28;20046;-60
2024/03/05 09:29:04;;;;;;;94.32;17.50;;;;;;;-148.24;100.00;61531.34;5093559;28;20046;-59
2024/03/05 09:31:30;;;;;;;66.00;16.08;;;;;;;-148.24;100.00;61531.34;5093095;27;20036;-60
2024/03/05 09:33:56;;;;;;;100.38;18.90;;;;;;;-148.24;100.00;61531.34;5093851;28;20019;-58
2024/03/05 09:36:23;;;;;;;78.85;16.10;;;;;;;-148.24;100.00;61531.34;5093555;27;20042;-60
2024/03/05 09:38:49;;;;;;;80.35;17.20;;;;;;;-148.24;100.00;61531.34;5095723;28;20026;-61
2024/03/05 09:41:15;;;;;;;75.70;15.82;;;;;;;-148.24;100.00;61531.34;5091700;27;20044;-61
2024/03/05 09:43:45;;;;;;;76.65;16.70;;;;;;;-148.24;100.00;61531.34;5094480;28;20034;-59
2024/03/05 09:46:13;;;;;;;72.05;15.90;;;;;;;-148.24;100.00;61531.34;5092020;28;20575;-60
2024/03/05 09:48:38;;;;;;;77.30;17.58;;;;;;;-148.24;100.00;61531.34;5094319;28;20023;-58
2024/03/05 09:51:08;;;;;;;146.18;25.50;;;;;;;-148.24;100.00;61531.34;5091909;27;20088;-59
2024/03/05 09:53:34;;;;;;;76.68;16.20;;;;;;;-148.24;100.00;61531.34;5095352;28;20020;-60
2024/03/05 09:56:00;;;;;;;105.75;15.05;;;;;;;-148.24;100.00;61531.34;5092916;28;20035;-59
2024/03/05 09:58:32;;;;;;;101.85;18.42;;;;;;;-148.24;100.00;61531.34;5092577;28;20035;-61
2024/03/05 10:00:59;;;;;;;;;;;;;;;-148.24;100.00;61531.34;5093606;27;20028;-58
2024/03/05 10:03:24;;;;;;;137.45;19.35;;;;;;;-148.24;100.00;61531.34;5093045;28;20246;-62
2024/03/05 10:05:50;;;;;;;99.22;16.80;;;;;;;-148.24;100.00;61531.34;5095277;27;20166;-60
2024/03/05 10:08:15;;;;;;;91.88;17.23;;;;;;;-148.24;100.00;61531.34;5097821;27;20353;-61
2024/03/05 10:10:43;;;;;;;110.18;17.17;;;;;;;-148.24;100.00;61531.34;5096996;27;20395;-61
2024/03/05 10:13:09;;;;;;;141.65;21.60;;;;;;;-148.24;100.00;61531.34;5096944;27;20023;-61
2024/03/05 10:15:37;;;;;;;79.93;20.95;;;;;;;-148.24;100.00;61531.34;5097724;27;20035;-59
2024/03/05 10:18:02;;;;;;;134.43;19.58;;;;;;;19.01;100.00;97576.59;5097210;27;20028;-60
2024/03/05 10:20:28;;;;;;;78.80;14.60;;;;;;;18.85;71.19;97584.28;5097257;27;20445;-61
2024/03/05 10:22:56;;;;;;;59.60;13.65;;;;;;;16.60;74.64;97595.47;5096863;27;20122;-59
2024/03/05 10:25:23;;;;;;;113.95;18.92;;;;;;;14.99;95.00;97591.59;5094340;27;20090;-58
2024/03/05 10:27:50;;;;;;;87.50;18.95;;;;;;;15.48;100.00;97588.47;5096924;27;20058;-59
2024/03/05 10:30:25;;;;;;;74.18;14.90;;;;;;;15.14;100.00;97592.91;5084337;27;20077;-62
2024/03/05 10:32:55;;;;;;;64.82;11.63;;;;;;;16.25;88.69;97598.38;5096502;27;20024;-59
2024/03/05 10:35:21;;;;;;;69.50;13.40;;;;;;;17.00;78.47;97597.63;5097350;27;20326;-59
2024/03/05 10:38:00;;;;;;;86.93;14.90;;;;;;;17.13;79.76;97598.03;5096709;27;20046;-59
2024/03/05 10:40:34;;;;;;;62.05;12.57;;;;;;;17.23;79.62;97598.56;5096839;27;20414;-60
2024/03/05 10:43:01;;;;;;;98.30;20.50;;;;;;;15.86;86.07;97596.09;5095373;27;20507;-61
2024/03/05 10:45:27;;;;;;;71.07;13.48;;;;;;;17.12;88.29;97591.09;5096047;27;20040;-59
2024/03/05 10:47:53;;;;;;;65.15;12.55;;;;;;;16.34;96.48;97589.34;5098688;27;20080;-58
2024/03/05 10:50:19;;;;;;;93.30;14.63;;;;;;;15.91;90.40;97595.91;5094490;27;20019;-58
2024/03/05 10:52:47;;;;;;;76.75;13.05;;;;;;;15.34;95.97;97591.50;5095930;27;20027;-60
2024/03/05 10:55:14;;;;;;;102.80;14.52;;;;;;;14.87;100.00;97597.16;5094392;27;20084;-60
2024/03/05 11:00:26;;;;;;;79.03;11.90;;;;;;;14.49;100.00;97602.47;5096068;27;20045;-61
2024/03/05 11:02:56;;;;;;;71.30;12.55;;;;;;;14.03;100.00;97605.34;5097695;27;20019;-60
2024/03/05 11:05:22;;;;;;;79.53;11.75;;;;;;;14.26;100.00;97596.91;5094530;27;20027;-60
2024/03/05 11:07:47;;;;;;;94.22;13.13;;;;;;;14.39;100.00;97597.47;5096554;27;20398;-60
2024/03/05 11:10:13;;;;;;;97.78;13.45;;;;;;;15.28;99.96;97597.78;5095909;27;20096;-59
2024/03/05 11:12:42;;;;;;;66.43;11.43;;;;;;;16.12;91.41;97597.03;5097121;27;20019;-59